createdAt,value
2018-04-17T00:00:00.889Z,1023.42
2018-04-17T00:01:01.010Z,1023.39
2018-04-17T00:02:00.959Z,1023.4
2018-04-17T00:03:01.081Z,1023.4
2018-04-17T00:04:01.018Z,1023.43
2018-04-17T00:05:00.940Z,1023.4
2018-04-17T00:06:00.916Z,1023.41
2018-04-17T00:07:00.799Z,1023.38
2018-04-17T00:08:01.174Z,1023.37
2018-04-17T00:09:00.807Z,1023.39
2018-04-17T00:10:00.856Z,1023.45
2018-04-17T00:11:00.958Z,1023.47
2018-04-17T00:12:00.966Z,1023.48
2018-04-17T00:13:01.061Z,1023.47
2018-04-17T00:14:01.037Z,1023.48
2018-04-17T00:15:00.961Z,1023.54
2018-04-17T00:16:01.029Z,1023.51
2018-04-17T00:17:01.028Z,1023.54
2018-04-17T00:18:00.966Z,1023.51
2018-04-17T00:19:01.085Z,1023.51
2018-04-17T00:20:01.000Z,1023.48
2018-04-17T00:21:00.996Z,1023.52
2018-04-17T00:22:00.914Z,1023.52
2018-04-17T00:23:00.783Z,1023.51
2018-04-17T00:24:01.024Z,1023.54
2018-04-17T00:25:01.034Z,1023.54
2018-04-17T00:26:01.005Z,1023.52
2018-04-17T00:27:01.006Z,1023.52
2018-04-17T00:28:00.798Z,1023.54
2018-04-17T00:29:00.920Z,1023.61
2018-04-17T00:30:00.794Z,1023.56
2018-04-17T00:31:01.031Z,1023.63
2018-04-17T00:32:01.030Z,1023.62
2018-04-17T00:33:00.944Z,1023.65
2018-04-17T00:34:00.841Z,1023.66
2018-04-17T00:35:00.864Z,1023.63
2018-04-17T00:36:00.966Z,1023.7
2018-04-17T00:37:00.987Z,1023.69
2018-04-17T00:38:00.884Z,1023.71
2018-04-17T00:39:00.795Z,1023.69
2018-04-17T00:40:00.996Z,1023.65
2018-04-17T00:41:00.933Z,1023.69
2018-04-17T00:42:00.985Z,1023.7
2018-04-17T00:43:00.841Z,1023.67
2018-04-17T00:44:00.882Z,1023.71
2018-04-17T00:45:01.028Z,1023.71
2018-04-17T00:46:01.026Z,1023.72
2018-04-17T00:47:00.871Z,1023.75
2018-04-17T00:48:01.065Z,1023.76
2018-04-17T00:49:00.828Z,1023.74
2018-04-17T00:50:00.983Z,1023.75
2018-04-17T00:51:01.075Z,1023.74
2018-04-17T00:52:00.918Z,1023.77
2018-04-17T00:53:00.949Z,1023.72
2018-04-17T00:54:00.870Z,1023.76
2018-04-17T00:55:00.978Z,1023.74
2018-04-17T00:56:00.986Z,1023.79
2018-04-17T00:57:00.964Z,1023.78
2018-04-17T00:58:01.035Z,1023.79
2018-04-17T00:59:00.824Z,1023.8
2018-04-17T01:00:00.899Z,1023.78
2018-04-17T01:01:00.805Z,1023.86
2018-04-17T01:02:00.928Z,1023.78
2018-04-17T01:03:00.997Z,1023.79
2018-04-17T01:04:01.047Z,1023.8
2018-04-17T01:05:00.977Z,1023.79
2018-04-17T01:06:00.997Z,1023.83
2018-04-17T01:07:00.829Z,1023.85
2018-04-17T01:08:01.003Z,1023.84
2018-04-17T01:09:01.054Z,1023.85
2018-04-17T01:10:01.065Z,1023.83
2018-04-17T01:11:00.865Z,1023.85
2018-04-17T01:12:00.924Z,1023.84
2018-04-17T01:13:00.784Z,1023.84
2018-04-17T01:14:00.818Z,1023.89
2018-04-17T01:15:01.039Z,1023.91
2018-04-17T01:16:00.964Z,1023.86
2018-04-17T01:17:01.073Z,1023.89
2018-04-17T01:18:00.829Z,1023.87
2018-04-17T01:19:00.892Z,1023.93
2018-04-17T01:20:01.099Z,1023.9
2018-04-17T01:21:00.816Z,1023.97
2018-04-17T01:22:00.924Z,1023.97
2018-04-17T01:23:00.784Z,1023.95
2018-04-17T01:24:00.786Z,1024
2018-04-17T01:25:00.833Z,1024
2018-04-17T01:26:00.870Z,1023.97
2018-04-17T01:27:00.973Z,1024
2018-04-17T01:28:00.990Z,1024
2018-04-17T01:29:00.952Z,1024.02
2018-04-17T01:30:00.903Z,1024.01
2018-04-17T01:31:00.907Z,1024.04
2018-04-17T01:32:00.995Z,1024.04
2018-04-17T01:33:00.822Z,1024.07
2018-04-17T01:34:00.909Z,1024.07
2018-04-17T01:35:00.835Z,1024.12
2018-04-17T01:36:00.853Z,1024.11
2018-04-17T01:37:00.976Z,1024.14
2018-04-17T01:38:00.842Z,1024.13
2018-04-17T01:39:00.989Z,1024.14
2018-04-17T01:40:01.010Z,1024.15
2018-04-17T01:41:00.769Z,1024.2
2018-04-17T01:42:00.785Z,1024.21
2018-04-17T01:43:00.871Z,1024.21
2018-04-17T01:44:00.827Z,1024.21
2018-04-17T01:45:00.785Z,1024.2
2018-04-17T01:46:00.919Z,1024.19
2018-04-17T01:47:00.859Z,1024.2
2018-04-17T01:48:00.936Z,1024.22
2018-04-17T01:49:00.774Z,1024.21
2018-04-17T01:50:00.743Z,1024.21
2018-04-17T01:51:01.019Z,1024.21
2018-04-17T01:52:00.915Z,1024.24
2018-04-17T01:53:00.883Z,1024.24
2018-04-17T01:54:00.948Z,1024.28
2018-04-17T01:55:00.928Z,1024.2
2018-04-17T01:56:00.984Z,1024.22
2018-04-17T01:57:01.002Z,1024.25
2018-04-17T01:58:00.790Z,1024.23
2018-04-17T01:59:00.923Z,1024.23
2018-04-17T02:00:00.905Z,1024.19
2018-04-17T02:01:00.784Z,1024.21
2018-04-17T02:02:00.799Z,1024.23
2018-04-17T02:03:00.981Z,1024.24
2018-04-17T02:04:00.955Z,1024.26
2018-04-17T02:05:00.969Z,1024.27
2018-04-17T02:06:01.073Z,1024.23
2018-04-17T02:07:00.798Z,1024.23
2018-04-17T02:08:00.835Z,1024.25
2018-04-17T02:09:00.876Z,1024.24
2018-04-17T02:10:00.967Z,1024.27
2018-04-17T02:11:00.897Z,1024.26
2018-04-17T02:12:00.962Z,1024.29
2018-04-17T02:13:01.005Z,1024.27
2018-04-17T02:14:00.778Z,1024.3
2018-04-17T02:15:00.980Z,1024.28
2018-04-17T02:16:00.910Z,1024.32
2018-04-17T02:17:00.847Z,1024.31
2018-04-17T02:18:00.829Z,1024.32
2018-04-17T02:19:01.091Z,1024.31
2018-04-17T02:20:01.010Z,1024.34
2018-04-17T02:21:00.928Z,1024.34
2018-04-17T02:22:00.908Z,1024.37
2018-04-17T02:23:00.895Z,1024.36
2018-04-17T02:24:01.002Z,1024.33
2018-04-17T02:25:00.932Z,1024.35
2018-04-17T02:26:00.925Z,1024.35
2018-04-17T02:27:00.854Z,1024.4
2018-04-17T02:28:00.915Z,1024.35
2018-04-17T02:29:00.965Z,1024.4
2018-04-17T02:30:00.941Z,1024.39
2018-04-17T02:31:00.877Z,1024.38
2018-04-17T02:32:00.861Z,1024.41
2018-04-17T02:33:00.906Z,1024.43
2018-04-17T02:34:00.841Z,1024.43
2018-04-17T02:35:00.736Z,1024.38
2018-04-17T02:36:00.932Z,1024.4
2018-04-17T02:37:00.762Z,1024.44
2018-04-17T02:38:00.883Z,1024.44
2018-04-17T02:39:00.723Z,1024.45
2018-04-17T02:40:00.899Z,1024.44
2018-04-17T02:41:00.785Z,1024.46
2018-04-17T02:42:00.828Z,1024.49
2018-04-17T02:43:00.766Z,1024.5
2018-04-17T02:44:00.889Z,1024.5
2018-04-17T02:45:00.809Z,1024.52
2018-04-17T02:46:00.922Z,1024.53
2018-04-17T02:47:00.895Z,1024.57
2018-04-17T02:48:00.879Z,1024.53
2018-04-17T02:49:00.841Z,1024.56
2018-04-17T02:50:00.952Z,1024.59
2018-04-17T02:51:00.866Z,1024.57
2018-04-17T02:52:00.915Z,1024.55
2018-04-17T02:53:00.917Z,1024.6
2018-04-17T02:54:00.842Z,1024.57
2018-04-17T02:55:00.895Z,1024.63
2018-04-17T02:56:00.772Z,1024.59
2018-04-17T02:57:00.900Z,1024.62
2018-04-17T02:58:00.843Z,1024.63
2018-04-17T02:59:00.987Z,1024.65
2018-04-17T03:00:00.800Z,1024.64
2018-04-17T03:01:00.825Z,1024.64
2018-04-17T03:02:00.826Z,1024.64
2018-04-17T03:03:00.924Z,1024.72
2018-04-17T03:04:00.746Z,1024.68
2018-04-17T03:05:00.861Z,1024.7
2018-04-17T03:06:00.889Z,1024.72
2018-04-17T03:07:00.917Z,1024.74
2018-04-17T03:08:00.765Z,1024.71
2018-04-17T03:09:01.102Z,1024.76
2018-04-17T03:10:00.942Z,1024.72
2018-04-17T03:11:00.854Z,1024.74
2018-04-17T03:12:00.772Z,1024.76
2018-04-17T03:13:00.812Z,1024.75
2018-04-17T03:14:00.883Z,1024.72
2018-04-17T03:15:00.910Z,1024.75
2018-04-17T03:16:00.915Z,1024.76
2018-04-17T03:17:00.872Z,1024.75
2018-04-17T03:18:01.114Z,1024.81
2018-04-17T03:19:00.981Z,1024.79
2018-04-17T03:20:00.950Z,1024.76
2018-04-17T03:21:00.921Z,1024.77
2018-04-17T03:22:01.055Z,1024.8
2018-04-17T03:23:01.025Z,1024.81
2018-04-17T03:24:00.873Z,1024.8
2018-04-17T03:25:00.841Z,1024.84
2018-04-17T03:26:00.992Z,1024.85
2018-04-17T03:27:00.750Z,1024.87
2018-04-17T03:28:00.707Z,1024.94
2018-04-17T03:29:00.766Z,1024.92
2018-04-17T03:30:00.994Z,1024.97
2018-04-17T03:31:00.895Z,1024.94
2018-04-17T03:32:00.993Z,1024.91
2018-04-17T03:33:00.784Z,1024.94
2018-04-17T03:34:00.857Z,1024.95
2018-04-17T03:35:00.756Z,1024.91
2018-04-17T03:36:00.814Z,1024.93
2018-04-17T03:37:00.882Z,1024.93
2018-04-17T03:38:00.775Z,1024.96
2018-04-17T03:39:00.804Z,1025
2018-04-17T03:40:00.905Z,1024.96
2018-04-17T03:41:00.918Z,1024.95
2018-04-17T03:42:00.781Z,1025.01
2018-04-17T03:43:00.861Z,1025
2018-04-17T03:44:00.726Z,1025.03
2018-04-17T03:45:00.848Z,1025.03
2018-04-17T03:46:00.948Z,1025.07
2018-04-17T03:47:00.864Z,1025.03
2018-04-17T03:48:00.914Z,1025.1
2018-04-17T03:49:00.925Z,1025.08
2018-04-17T03:50:00.744Z,1025.07
2018-04-17T03:51:00.855Z,1025.09
2018-04-17T03:52:00.832Z,1025.1
2018-04-17T03:53:00.903Z,1025.14
2018-04-17T03:54:00.747Z,1025.14
2018-04-17T03:55:00.852Z,1025.15
2018-04-17T03:56:01.000Z,1025.16
2018-04-17T03:57:00.828Z,1025.18
2018-04-17T03:58:00.821Z,1025.18
2018-04-17T03:59:00.950Z,1025.22
2018-04-17T04:00:00.773Z,1025.24
2018-04-17T04:01:00.991Z,1025.24
2018-04-17T04:02:00.835Z,1025.23
2018-04-17T04:03:00.876Z,1025.27
2018-04-17T04:04:00.963Z,1025.26
2018-04-17T04:05:00.784Z,1025.31
2018-04-17T04:06:00.919Z,1025.3
2018-04-17T04:07:00.891Z,1025.3
2018-04-17T04:08:00.908Z,1025.35
2018-04-17T04:09:00.780Z,1025.32
2018-04-17T04:10:00.825Z,1025.35
2018-04-17T04:11:00.835Z,1025.4
2018-04-17T04:12:00.984Z,1025.4
2018-04-17T04:13:00.906Z,1025.43
2018-04-17T04:14:00.825Z,1025.42
2018-04-17T04:15:00.792Z,1025.41
2018-04-17T04:16:00.843Z,1025.45
2018-04-17T04:17:01.088Z,1025.42
2018-04-17T04:18:00.879Z,1025.47
2018-04-17T04:19:00.728Z,1025.5
2018-04-17T04:20:00.753Z,1025.48
2018-04-17T04:21:00.824Z,1025.51
2018-04-17T04:22:00.913Z,1025.49
2018-04-17T04:23:00.721Z,1025.5
2018-04-17T04:24:00.935Z,1025.58
2018-04-17T04:25:00.799Z,1025.53
2018-04-17T04:26:00.955Z,1025.51
2018-04-17T04:27:00.853Z,1025.57
2018-04-17T04:28:00.775Z,1025.6
2018-04-17T04:29:00.959Z,1025.56
2018-04-17T04:30:00.942Z,1025.59
2018-04-17T04:31:00.754Z,1025.61
2018-04-17T04:32:00.958Z,1025.63
2018-04-17T04:33:00.859Z,1025.68
2018-04-17T04:34:00.961Z,1025.7
2018-04-17T04:35:00.928Z,1025.72
2018-04-17T04:36:01.018Z,1025.73
2018-04-17T04:37:00.960Z,1025.75
2018-04-17T04:38:00.904Z,1025.77
2018-04-17T04:39:00.940Z,1025.78
2018-04-17T04:40:00.960Z,1025.8
2018-04-17T04:41:00.774Z,1025.8
2018-04-17T04:42:00.732Z,1025.82
2018-04-17T04:43:00.912Z,1025.85
2018-04-17T04:44:00.684Z,1025.85
2018-04-17T04:45:00.815Z,1025.85
2018-04-17T04:46:00.945Z,1025.86
2018-04-17T04:47:00.727Z,1025.9
2018-04-17T04:48:00.757Z,1025.86
2018-04-17T04:49:00.715Z,1025.91
2018-04-17T04:50:00.939Z,1025.9
2018-04-17T04:51:00.929Z,1025.91
2018-04-17T04:52:00.764Z,1025.94
2018-04-17T04:53:00.944Z,1025.93
2018-04-17T04:54:00.783Z,1025.96
2018-04-17T04:55:00.802Z,1025.99
2018-04-17T04:56:00.841Z,1026
2018-04-17T04:57:00.884Z,1025.96
2018-04-17T04:58:00.837Z,1026.02
2018-04-17T04:59:00.767Z,1026.04
2018-04-17T05:00:00.920Z,1025.98
2018-04-17T05:01:00.987Z,1026.01
2018-04-17T05:02:00.788Z,1026.03
2018-04-17T05:03:00.909Z,1026.03
2018-04-17T05:04:00.773Z,1026.03
2018-04-17T05:05:00.709Z,1026.07
2018-04-17T05:06:00.769Z,1026.02
2018-04-17T05:07:00.863Z,1026.06
2018-04-17T05:08:00.908Z,1026.03
2018-04-17T05:09:00.698Z,1026.05
2018-04-17T05:10:00.819Z,1026.06
2018-04-17T05:11:00.925Z,1026.07
2018-04-17T05:12:00.740Z,1026.09
2018-04-17T05:13:00.785Z,1026.08
2018-04-17T05:14:00.971Z,1026.07
2018-04-17T05:15:00.968Z,1026.11
2018-04-17T05:16:00.808Z,1026.16
2018-04-17T05:17:00.961Z,1026.11
2018-04-17T05:18:01.055Z,1026.17
2018-04-17T05:19:00.806Z,1026.17
2018-04-17T05:20:00.817Z,1026.23
2018-04-17T05:21:00.859Z,1026.26
2018-04-17T05:22:00.763Z,1026.25
2018-04-17T05:23:00.808Z,1026.23
2018-04-17T05:24:00.922Z,1026.25
2018-04-17T05:25:00.970Z,1026.3
2018-04-17T05:26:00.889Z,1026.3
2018-04-17T05:27:00.811Z,1026.3
2018-04-17T05:28:00.785Z,1026.31
2018-04-17T05:29:00.822Z,1026.37
2018-04-17T05:30:00.959Z,1026.35
2018-04-17T05:31:00.889Z,1026.35
2018-04-17T05:32:01.178Z,1026.35
2018-04-17T05:33:00.775Z,1026.38
2018-04-17T05:34:00.679Z,1026.41
2018-04-17T05:35:00.815Z,1026.42
2018-04-17T05:36:00.832Z,1026.41
2018-04-17T05:37:00.984Z,1026.49
2018-04-17T05:38:00.857Z,1026.48
2018-04-17T05:39:00.875Z,1026.47
2018-04-17T05:40:00.698Z,1026.53
2018-04-17T05:41:00.665Z,1026.52
2018-04-17T05:42:00.796Z,1026.54
2018-04-17T05:43:00.840Z,1026.55
2018-04-17T05:44:00.949Z,1026.55
2018-04-17T05:45:00.786Z,1026.56
2018-04-17T05:46:00.902Z,1026.61
2018-04-17T05:47:00.941Z,1026.61
2018-04-17T05:48:00.943Z,1026.64
2018-04-17T05:49:00.835Z,1026.66
2018-04-17T05:50:00.802Z,1026.65
2018-04-17T05:51:00.862Z,1026.69
2018-04-17T05:52:00.793Z,1026.72
2018-04-17T05:53:00.843Z,1026.72
2018-04-17T05:54:00.917Z,1026.76
2018-04-17T05:55:00.782Z,1026.8
2018-04-17T05:56:01.096Z,1026.82
2018-04-17T05:57:00.943Z,1026.81
2018-04-17T05:58:00.817Z,1026.83
2018-04-17T05:59:00.666Z,1026.8
2018-04-17T06:00:00.761Z,1026.83
2018-04-17T06:01:00.700Z,1026.85
2018-04-17T06:02:00.805Z,1026.82
2018-04-17T06:03:01.026Z,1026.84
2018-04-17T06:04:00.878Z,1026.88
2018-04-17T06:05:00.917Z,1026.86
2018-04-17T06:06:00.765Z,1026.87
2018-04-17T06:07:00.908Z,1026.85
2018-04-17T06:08:00.932Z,1026.85
2018-04-17T06:09:00.828Z,1026.88
2018-04-17T06:10:00.914Z,1026.89
2018-04-17T06:11:00.867Z,1026.86
2018-04-17T06:12:00.768Z,1026.9
2018-04-17T06:13:00.872Z,1026.9
2018-04-17T06:14:00.708Z,1026.91
2018-04-17T06:15:00.731Z,1026.91
2018-04-17T06:16:00.863Z,1026.92
2018-04-17T06:17:00.928Z,1026.97
2018-04-17T06:18:00.929Z,1027.01
2018-04-17T06:19:01.004Z,1027.03
2018-04-17T06:20:00.986Z,1027.06
2018-04-17T06:21:00.804Z,1027.03
2018-04-17T06:22:01.045Z,1027.07
2018-04-17T06:23:00.878Z,1027.09
2018-04-17T06:24:01.676Z,1027.1
2018-04-17T06:25:00.777Z,1027.07
2018-04-17T06:26:00.935Z,1027.11
2018-04-17T06:27:00.869Z,1027.1
2018-04-17T06:28:00.866Z,1027.18
2018-04-17T06:29:00.938Z,1027.11
2018-04-17T06:30:00.792Z,1027.15
2018-04-17T06:31:00.923Z,1027.15
2018-04-17T06:32:00.958Z,1027.16
2018-04-17T06:33:00.990Z,1027.15
2018-04-17T06:34:00.811Z,1027.16
2018-04-17T06:35:00.973Z,1027.2
2018-04-17T06:36:00.794Z,1027.16
2018-04-17T06:37:02.444Z,1027.19
2018-04-17T06:38:00.818Z,1027.22
2018-04-17T06:39:00.935Z,1027.21
2018-04-17T06:40:00.964Z,1027.19
2018-04-17T06:41:00.727Z,1027.24
2018-04-17T06:42:00.857Z,1027.27
2018-04-17T06:43:00.838Z,1027.26
2018-04-17T06:44:00.778Z,1027.24
2018-04-17T06:45:00.844Z,1027.3
2018-04-17T06:46:00.740Z,1027.35
2018-04-17T06:47:00.877Z,1027.32
2018-04-17T06:48:00.843Z,1027.29
2018-04-17T06:49:00.889Z,1027.34
2018-04-17T06:50:02.059Z,1027.28
2018-04-17T06:51:00.687Z,1027.32
2018-04-17T06:52:00.885Z,1027.26
2018-04-17T06:53:00.781Z,1027.32
2018-04-17T06:54:00.861Z,1027.29
2018-04-17T06:55:00.779Z,1027.33
2018-04-17T06:56:00.783Z,1027.37
2018-04-17T06:57:00.909Z,1027.33
2018-04-17T06:58:00.777Z,1027.36
2018-04-17T06:59:00.785Z,1027.35
2018-04-17T07:00:00.884Z,1027.37
2018-04-17T07:01:00.782Z,1027.39
2018-04-17T07:02:00.820Z,1027.38
2018-04-17T07:03:00.657Z,1027.4
2018-04-17T07:04:01.116Z,1027.39
2018-04-17T07:05:00.762Z,1027.44
2018-04-17T07:06:00.931Z,1027.43
2018-04-17T07:07:00.775Z,1027.43
2018-04-17T07:08:00.815Z,1027.45
2018-04-17T07:09:00.893Z,1027.47
2018-04-17T07:10:00.850Z,1027.48
2018-04-17T07:11:02.920Z,1027.49
2018-04-17T07:12:00.980Z,1027.52
2018-04-17T07:13:00.924Z,1027.54
2018-04-17T07:14:02.945Z,1027.55
2018-04-17T07:15:00.820Z,1027.58
2018-04-17T07:16:00.987Z,1027.61
2018-04-17T07:17:01.007Z,1027.63
2018-04-17T07:18:00.848Z,1027.65
2018-04-17T07:19:00.891Z,1027.64
2018-04-17T07:20:00.838Z,1027.67
2018-04-17T07:21:00.756Z,1027.69
2018-04-17T07:22:00.863Z,1027.71
2018-04-17T07:23:00.700Z,1027.75
2018-04-17T07:24:01.022Z,1027.72
2018-04-17T07:25:00.857Z,1027.77
2018-04-17T07:26:00.908Z,1027.76
2018-04-17T07:27:00.841Z,1027.79
2018-04-17T07:28:00.957Z,1027.79
2018-04-17T07:29:00.860Z,1027.81
2018-04-17T07:30:00.801Z,1027.8
2018-04-17T07:31:00.733Z,1027.8
2018-04-17T07:32:00.776Z,1027.8
2018-04-17T07:33:00.912Z,1027.8
2018-04-17T07:34:01.013Z,1027.77
2018-04-17T07:35:00.870Z,1027.82
2018-04-17T07:36:00.727Z,1027.8
2018-04-17T07:37:00.764Z,1027.8
2018-04-17T07:38:00.909Z,1027.8
2018-04-17T07:39:00.950Z,1027.81
2018-04-17T07:40:00.803Z,1027.87
2018-04-17T07:41:00.865Z,1027.84
2018-04-17T07:42:00.753Z,1027.89
2018-04-17T07:43:00.736Z,1027.88
2018-04-17T07:44:00.879Z,1027.91
2018-04-17T07:45:00.852Z,1027.94
2018-04-17T07:46:00.786Z,1027.92
2018-04-17T07:47:00.937Z,1027.96
2018-04-17T07:48:00.843Z,1027.98
2018-04-17T07:49:00.774Z,1028.02
2018-04-17T07:50:00.940Z,1028.01
2018-04-17T07:51:00.813Z,1028.04
2018-04-17T07:52:00.710Z,1028.07
2018-04-17T07:53:00.954Z,1028.08
2018-04-17T07:54:00.709Z,1028.08
2018-04-17T07:55:00.693Z,1028.1
2018-04-17T07:56:00.777Z,1028.11
2018-04-17T07:57:00.869Z,1028.05
2018-04-17T07:58:00.882Z,1028.07
2018-04-17T07:59:00.673Z,1028.1
2018-04-17T08:00:00.838Z,1028.07
2018-04-17T08:01:00.770Z,1028.11
2018-04-17T08:02:00.805Z,1028.08
2018-04-17T08:03:00.899Z,1028.12
2018-04-17T08:04:00.843Z,1028.13
2018-04-17T08:05:00.693Z,1028.14
2018-04-17T08:06:00.842Z,1028.16
2018-04-17T08:07:00.874Z,1028.16
2018-04-17T08:08:00.681Z,1028.15
2018-04-17T08:09:00.862Z,1028.17
2018-04-17T08:10:00.737Z,1028.15
2018-04-17T08:11:00.886Z,1028.13
2018-04-17T08:12:00.749Z,1028.13
2018-04-17T08:13:00.784Z,1028.1
2018-04-17T08:14:00.856Z,1028.11
2018-04-17T08:15:00.890Z,1028.16
2018-04-17T08:16:00.948Z,1028.14
2018-04-17T08:17:00.625Z,1028.14
2018-04-17T08:18:00.940Z,1028.16
2018-04-17T08:19:00.814Z,1028.17
2018-04-17T08:20:00.878Z,1028.18
2018-04-17T08:21:00.828Z,1028.16
2018-04-17T08:22:00.730Z,1028.17
2018-04-17T08:23:00.875Z,1028.14
2018-04-17T08:24:00.630Z,1028.19
2018-04-17T08:25:01.692Z,1028.15
2018-04-17T08:26:00.915Z,1028.17
2018-04-17T08:27:00.783Z,1028.14
2018-04-17T08:28:00.836Z,1028.15
2018-04-17T08:29:00.910Z,1028.16
2018-04-17T08:30:00.733Z,1028.15
2018-04-17T08:31:00.891Z,1028.15
2018-04-17T08:32:00.805Z,1028.14
2018-04-17T08:33:00.846Z,1028.13
2018-04-17T08:34:01.017Z,1028.09
2018-04-17T08:35:00.881Z,1028.14
2018-04-17T08:36:00.708Z,1028.1
2018-04-17T08:37:00.853Z,1028.12
2018-04-17T08:38:00.834Z,1028.12
2018-04-17T08:39:00.853Z,1028.1
2018-04-17T08:40:00.740Z,1028.09
2018-04-17T08:41:00.725Z,1028.12
2018-04-17T08:42:00.620Z,1028.08
2018-04-17T08:43:00.770Z,1028.11
2018-04-17T08:44:00.685Z,1028.12
2018-04-17T08:45:00.683Z,1028.13
2018-04-17T08:46:00.765Z,1028.11
2018-04-17T08:47:00.784Z,1028.15
2018-04-17T08:48:00.797Z,1028.12
2018-04-17T08:49:00.864Z,1028.13
2018-04-17T08:50:00.739Z,1028.16
2018-04-17T08:51:00.742Z,1028.16
2018-04-17T08:52:00.728Z,1028.17
2018-04-17T08:53:00.741Z,1028.15
2018-04-17T08:54:00.875Z,1028.17
2018-04-17T08:55:00.877Z,1028.12
2018-04-17T08:56:00.691Z,1028.16
2018-04-17T08:57:00.780Z,1028.14
2018-04-17T08:58:00.841Z,1028.16
2018-04-17T08:59:00.787Z,1028.16
2018-04-17T09:00:00.698Z,1028.17
2018-04-17T09:01:00.765Z,1028.16
2018-04-17T09:02:01.011Z,1028.14
2018-04-17T09:03:00.784Z,1028.16
2018-04-17T09:04:00.851Z,1028.16
2018-04-17T09:05:00.681Z,1028.16
2018-04-17T09:06:00.798Z,1028.17
2018-04-17T09:07:01.723Z,1028.16
2018-04-17T09:08:00.770Z,1028.15
2018-04-17T09:09:00.808Z,1028.15
2018-04-17T09:10:00.671Z,1028.15
2018-04-17T09:11:00.831Z,1028.17
2018-04-17T09:12:00.899Z,1028.18
2018-04-17T09:13:00.957Z,1028.16
2018-04-17T09:14:00.723Z,1028.18
2018-04-17T09:15:00.782Z,1028.16
2018-04-17T09:16:00.736Z,1028.17
2018-04-17T09:17:00.729Z,1028.18
2018-04-17T09:18:00.672Z,1028.2
2018-04-17T09:19:00.700Z,1028.19
2018-04-17T09:20:00.727Z,1028.16
2018-04-17T09:21:01.060Z,1028.18
2018-04-17T09:22:00.905Z,1028.17
2018-04-17T09:23:00.690Z,1028.18
2018-04-17T09:24:01.010Z,1028.16
2018-04-17T09:25:00.786Z,1028.2
2018-04-17T09:26:00.742Z,1028.21
2018-04-17T09:27:00.894Z,1028.18
2018-04-17T09:28:00.759Z,1028.15
2018-04-17T09:29:00.822Z,1028.21
2018-04-17T09:30:00.679Z,1028.25
2018-04-17T09:31:00.685Z,1028.24
2018-04-17T09:32:00.726Z,1028.3
2018-04-17T09:33:00.672Z,1028.33
2018-04-17T09:34:00.711Z,1028.26
2018-04-17T09:35:00.694Z,1028.26
2018-04-17T09:36:01.034Z,1028.29
2018-04-17T09:37:00.779Z,1028.32
2018-04-17T09:38:00.801Z,1028.27
2018-04-17T09:39:00.715Z,1028.33
2018-04-17T09:40:00.725Z,1028.37
2018-04-17T09:41:00.745Z,1028.3
2018-04-17T09:42:00.749Z,1028.32
2018-04-17T09:43:00.760Z,1028.32
2018-04-17T09:44:00.711Z,1028.37
2018-04-17T09:45:01.668Z,1028.38
2018-04-17T09:46:00.758Z,1028.39
2018-04-17T09:47:00.872Z,1028.39
2018-04-17T09:48:00.702Z,1028.43
2018-04-17T09:49:00.768Z,1028.41
2018-04-17T09:50:00.854Z,1028.4
2018-04-17T09:51:00.777Z,1028.41
2018-04-17T09:52:00.718Z,1028.41
2018-04-17T09:53:00.765Z,1028.43
2018-04-17T09:54:00.708Z,1028.41
2018-04-17T09:55:00.695Z,1028.42
2018-04-17T09:56:00.663Z,1028.37
2018-04-17T09:57:00.749Z,1028.46
2018-04-17T09:58:00.633Z,1028.4
2018-04-17T09:59:00.766Z,1028.44
2018-04-17T10:00:00.640Z,1028.43
2018-04-17T10:01:00.748Z,1028.46
2018-04-17T10:02:00.667Z,1028.43
2018-04-17T10:03:00.726Z,1028.47
2018-04-17T10:04:01.053Z,1028.43
2018-04-17T10:05:00.783Z,1028.43
2018-04-17T10:06:00.812Z,1028.44
2018-04-17T10:07:00.719Z,1028.43
2018-04-17T10:08:00.717Z,1028.41
2018-04-17T10:09:01.209Z,1028.41
2018-04-17T10:10:00.644Z,1028.39
2018-04-17T10:11:00.731Z,1028.34
2018-04-17T10:12:00.683Z,1028.37
2018-04-17T10:13:00.797Z,1028.37
2018-04-17T10:14:00.756Z,1028.36
2018-04-17T10:15:00.774Z,1028.37
2018-04-17T10:16:00.699Z,1028.36
2018-04-17T10:17:00.753Z,1028.39
2018-04-17T10:18:00.797Z,1028.41
2018-04-17T10:19:00.906Z,1028.34
2018-04-17T10:20:00.725Z,1028.38
2018-04-17T10:21:00.675Z,1028.38
2018-04-17T10:22:00.798Z,1028.37
2018-04-17T10:23:00.566Z,1028.39
2018-04-17T10:24:00.733Z,1028.41
2018-04-17T10:25:00.749Z,1028.38
2018-04-17T10:26:00.790Z,1028.3
2018-04-17T10:27:00.809Z,1028.35
2018-04-17T10:28:00.780Z,1028.36
2018-04-17T10:29:00.791Z,1028.33
2018-04-17T10:30:00.708Z,1028.27
2018-04-17T10:31:00.773Z,1028.34
2018-04-17T10:32:00.811Z,1028.31
2018-04-17T10:33:00.838Z,1028.27
2018-04-17T10:34:00.855Z,1028.23
2018-04-17T10:35:00.827Z,1028.23
2018-04-17T10:36:00.711Z,1028.23
2018-04-17T10:37:00.769Z,1028.19
2018-04-17T10:38:00.793Z,1028.16
2018-04-17T10:39:00.911Z,1028.16
2018-04-17T10:40:00.644Z,1028.18
2018-04-17T10:41:00.721Z,1028.14
2018-04-17T10:42:00.816Z,1028.15
2018-04-17T10:43:00.656Z,1028.19
2018-04-17T10:44:00.690Z,1028.15
2018-04-17T10:45:00.692Z,1028.11
2018-04-17T10:46:00.673Z,1028.14
2018-04-17T10:47:00.863Z,1028.08
2018-04-17T10:48:00.648Z,1028.12
2018-04-17T10:49:00.680Z,1028.06
2018-04-17T10:50:00.664Z,1028.12
2018-04-17T10:51:00.977Z,1028.03
2018-04-17T10:52:00.763Z,1028.09
2018-04-17T10:53:00.676Z,1028.06
2018-04-17T10:54:00.846Z,1028.04
2018-04-17T10:55:00.666Z,1028.04
2018-04-17T10:56:00.780Z,1028.05
2018-04-17T10:57:00.791Z,1028.03
2018-04-17T10:58:00.698Z,1028.04
2018-04-17T10:59:00.609Z,1028.02
2018-04-17T11:00:00.662Z,1028.05
2018-04-17T11:01:00.767Z,1028.06
2018-04-17T11:02:00.826Z,1028.04
2018-04-17T11:03:00.620Z,1028.01
2018-04-17T11:04:00.774Z,1028.06
2018-04-17T11:05:00.678Z,1028.05
2018-04-17T11:06:00.785Z,1028.09
2018-04-17T11:07:00.604Z,1028.07
2018-04-17T11:08:00.781Z,1028.07
2018-04-17T11:09:00.589Z,1028.05
2018-04-17T11:10:00.771Z,1028.04
2018-04-17T11:11:00.735Z,1028.02
2018-04-17T11:12:00.692Z,1028.01
2018-04-17T11:13:00.578Z,1028.04
2018-04-17T11:14:00.595Z,1028
2018-04-17T11:15:00.577Z,1028.04
2018-04-17T11:16:00.847Z,1028.02
2018-04-17T11:17:00.664Z,1028
2018-04-17T11:18:00.657Z,1027.99
2018-04-17T11:19:00.786Z,1028.01
2018-04-17T11:20:00.815Z,1028
2018-04-17T11:21:00.779Z,1028.01
2018-04-17T11:22:00.841Z,1028.02
2018-04-17T11:23:00.823Z,1027.97
2018-04-17T11:24:00.640Z,1027.99
2018-04-17T11:25:00.746Z,1028.01
2018-04-17T11:26:00.796Z,1028.01
2018-04-17T11:27:00.815Z,1028.01
2018-04-17T11:28:00.701Z,1028
2018-04-17T11:29:00.827Z,1028.02
2018-04-17T11:30:00.819Z,1028.02
2018-04-17T11:31:00.675Z,1028.06
2018-04-17T11:32:00.742Z,1028.01
2018-04-17T11:33:00.723Z,1028.04
2018-04-17T11:34:00.758Z,1028.05
2018-04-17T11:35:00.805Z,1028.05
2018-04-17T11:36:00.651Z,1028.06
2018-04-17T11:37:00.879Z,1028.07
2018-04-17T11:38:01.365Z,1028.04
2018-04-17T11:39:00.667Z,1027.99
2018-04-17T11:40:00.665Z,1028
2018-04-17T11:41:00.605Z,1027.99
2018-04-17T11:42:00.694Z,1027.98
2018-04-17T11:43:00.826Z,1027.97
2018-04-17T11:44:00.751Z,1027.95
2018-04-17T11:45:02.939Z,1027.99
2018-04-17T11:46:00.610Z,1028.01
2018-04-17T11:47:00.886Z,1027.98
2018-04-17T11:48:00.660Z,1028
2018-04-17T11:49:00.693Z,1027.99
2018-04-17T11:50:00.830Z,1027.98
2018-04-17T11:51:00.940Z,1028
2018-04-17T11:52:00.865Z,1027.98
2018-04-17T11:53:00.833Z,1027.99
2018-04-17T11:54:00.783Z,1027.97
2018-04-17T11:55:00.722Z,1027.94
2018-04-17T11:56:00.817Z,1027.93
2018-04-17T11:57:00.655Z,1027.92
2018-04-17T11:58:00.556Z,1027.95
2018-04-17T11:59:00.721Z,1027.96
2018-04-17T12:00:00.755Z,1027.95
2018-04-17T12:01:00.829Z,1027.91
2018-04-17T12:02:00.831Z,1027.92
2018-04-17T12:03:00.681Z,1027.95
2018-04-17T12:04:00.668Z,1027.93
2018-04-17T12:05:00.820Z,1027.94
2018-04-17T12:06:00.735Z,1027.91
2018-04-17T12:07:00.910Z,1027.93
2018-04-17T12:08:00.826Z,1027.93
2018-04-17T12:09:00.595Z,1027.9